Time;durP1;ratioP1;P1;durP2;ratioP2;P2;SDS_P1;SDS_P2;PMS_P1;PMS_P2;Temp;Humidity;BMP_temperature;BMP_pressure;BME280_temperature;BME280_humidity;BME280_pressure;Samples;Min_cycle;Max_cycle;Signal;HPM_P1;HPM_P2
2022/11/05 00:11:16;;;;;;;6.22;2.67;;;8.60;99.90;;;;;;5028894;28;20389;-92
2022/11/05 00:16:44;;;;;;;3.75;3.03;;;8.70;99.90;;;;;;5032534;28;20341;-91
2022/11/05 00:19:10;;;;;;;7.05;2.83;;;8.70;99.90;;;;;;5030959;28;20186;-90
2022/11/05 00:27:07;;;;;;;4.07;2.65;;;8.90;99.90;;;;;;5026404;28;20369;-90
2022/11/05 00:29:33;;;;;;;4.50;3.15;;;8.60;99.90;;;;;;5032200;28;20178;-90
2022/11/05 00:31:59;;;;;;;5.03;3.10;;;;;;;;;;5028657;28;20209;-90
2022/11/05 00:34:25;;;;;;;9.73;5.27;;;;;;;;;;5026877;28;20774;-90
2022/11/05 00:36:51;;;;;;;5.27;3.23;;;;;;;;;;5022149;28;20443;-90
2022/11/05 00:39:17;;;;;;;5.85;4.00;;;;;;;;;;5026648;28;20527;-91
2022/11/05 00:41:43;;;;;;;10.17;4.87;;;;;;;;;;5027517;28;20321;-91
2022/11/05 00:49:28;;;;;;;8.73;5.03;;;;;;;;;;5027466;28;20852;-91
2022/11/05 00:49:39;;;;;;;14.02;5.18;;;;;;;;;;5022816;28;20276;-90
2022/11/05 00:54:49;;;;;;;9.23;6.65;;;8.50;99.90;;;;;;5028462;28;20567;-91
2022/11/05 00:57:15;;;;;;;7.17;5.63;;;;;;;;;;5029044;28;20655;-91
2022/11/05 00:59:41;;;;;;;10.50;5.00;;;;;;;;;;5045251;28;20611;-90
2022/11/05 01:02:07;;;;;;;9.90;6.67;;;;;;;;;;5026528;28;20503;-90
2022/11/05 01:04:33;;;;;;;8.87;5.87;;;;;;;;;;5020437;28;20527;-90
2022/11/05 01:06:59;;;;;;;11.30;6.07;;;;;;;;;;5028904;28;20926;-90
2022/11/05 01:09:25;;;;;;;8.23;6.10;;;;;;;;;;5027159;28;20432;-91
2022/11/05 01:11:51;;;;;;;11.77;7.20;;;;;;;;;;5028324;28;20991;-90
2022/11/05 01:14:18;;;;;;;14.30;7.83;;;8.70;99.90;;;;;;5044814;28;20464;-90
2022/11/05 01:16:44;;;;;;;11.70;6.60;;;;;;;;;;5028738;28;20432;-91
2022/11/05 01:19:10;;;;;;;13.43;6.60;;;;;;;;;;5039400;28;20189;-91
2022/11/05 01:21:36;;;;;;;10.70;6.43;;;8.70;99.90;;;;;;5026773;28;20210;-91
2022/11/05 01:24:02;;;;;;;13.20;7.83;;;8.70;99.90;;;;;;5022350;28;20190;-91
2022/11/05 01:26:28;;;;;;;15.07;8.30;;;;;;;;;;5021098;28;20182;-91
2022/11/05 01:28:56;;;;;;;10.77;7.37;;;8.70;99.90;;;;;;5026903;28;20716;-91
2022/11/05 01:31:27;;;;;;;14.18;7.13;;;8.70;99.90;;;;;;5027792;28;20472;-91
2022/11/05 01:33:53;;;;;;;17.83;8.32;;;;;;;;;;5021761;28;20297;-90
2022/11/05 01:36:19;;;;;;;11.03;7.50;;;;;;;;;;5017722;28;20580;-91
2022/11/05 01:38:45;;;;;;;10.17;7.50;;;;;;;;;;5025166;28;20440;-92
2022/11/05 01:41:11;;;;;;;12.93;8.43;;;;;;;;;;5028938;28;20452;-91
2022/11/05 01:43:56;;;;;;;10.73;7.55;;;8.80;99.90;;;;;;5027127;28;20467;-91
2022/11/05 01:46:37;;;;;;;12.35;8.57;;;8.80;99.90;;;;;;5026386;28;20189;-91
2022/11/05 01:49:18;;;;;;;9.93;6.78;;;8.90;99.90;;;;;;5025980;28;20182;-91
2022/11/05 01:51:44;;;;;;;12.88;8.40;;;8.90;99.90;;;;;;5033351;28;20308;-90
2022/11/05 01:54:15;;;;;;;13.60;7.38;;;8.80;99.90;;;;;;5025580;28;20331;-91
2022/11/05 01:56:45;;;;;;;12.23;8.82;;;8.80;99.90;;;;;;5022679;28;20247;-90
2022/11/05 01:59:33;;;;;;;11.40;8.15;;;8.80;99.90;;;;;;5038841;28;20174;-91
2022/11/05 02:02:00;;;;;;;16.00;9.68;;;8.70;99.90;;;;;;5017759;28;20717;-91
2022/11/05 02:04:45;;;;;;;12.27;7.47;;;8.70;99.90;;;;;;5020166;28;20178;-90
2022/11/05 02:07:12;;;;;;;11.55;7.20;;;8.70;99.90;;;;;;5042104;28;20190;-91
2022/11/05 02:09:48;;;;;;;12.30;7.18;;;8.80;99.90;;;;;;5026828;28;20225;-90
2022/11/05 02:12:14;;;;;;;11.05;7.13;;;;;;;;;;5025995;28;20252;-90
2022/11/05 02:14:44;;;;;;;12.63;7.32;;;8.60;99.90;;;;;;5023952;28;20217;-90
2022/11/05 02:17:25;;;;;;;7.70;6.45;;;8.80;99.90;;;;;;5019355;28;20188;-91
2022/11/05 02:20:27;;;;;;;7.70;5.43;;;8.80;99.90;;;;;;5043064;28;20178;-91
2022/11/05 02:23:17;;;;;;;12.98;6.72;;;8.90;99.90;;;;;;5025509;28;20178;-90
2022/11/05 02:26:07;;;;;;;10.40;6.80;;;8.90;99.90;;;;;;5026165;28;20177;-90
2022/11/05 02:29:02;;;;;;;13.60;6.85;;;8.90;99.90;;;;;;5022214;28;20670;-91
2022/11/05 02:31:48;;;;;;;10.90;7.30;;;8.90;99.90;;;;;;5022981;28;20210;-91
2022/11/05 02:34:40;;;;;;;12.23;8.38;;;8.90;99.90;;;;;;5024542;28;20206;-90
2022/11/05 02:37:18;;;;;;;11.82;8.70;;;9.30;99.90;;;;;;5043993;28;20763;-91
2022/11/05 02:40:04;;;;;;;16.67;8.55;;;8.90;99.90;;;;;;5047671;28;20174;-91
2022/11/05 02:42:31;;;;;;;11.75;7.78;;;8.90;99.90;;;;;;5032099;28;20174;-91
2022/11/05 02:45:28;;;;;;;10.70;6.93;;;8.90;99.90;;;;;;5032571;28;20186;-90
2022/11/05 02:48:03;;;;;;;9.80;6.70;;;8.80;99.90;;;;;;5038074;28;20174;-91
2022/11/05 02:50:35;;;;;;;11.25;8.45;;;9.00;99.90;;;;;;5053771;28;20209;-92
2022/11/05 02:53:15;;;;;;;13.70;9.07;;;8.80;99.90;;;;;;5031395;28;20265;-92
2022/11/05 02:56:04;;;;;;;15.32;7.78;;;8.80;99.90;;;;;;5048138;28;20196;-89
2022/11/05 02:58:33;;;;;;;12.57;8.27;;;8.80;99.90;;;;;;5025559;28;20279;-91
2022/11/05 03:01:00;;;;;;;12.27;6.85;;;;;;;;;;5044894;28;20710;-91
2022/11/05 03:04:03;;;;;;;13.27;7.82;;;8.80;99.90;;;;;;5022921;28;20838;-90
2022/11/05 03:07:27;;;;;;;15.48;7.13;;;8.80;99.90;;;;;;4994202;28;20345;-90
2022/11/05 03:10:29;;;;;;;16.73;8.88;;;8.80;99.90;;;;;;4975367;28;20681;-91
2022/11/05 03:13:12;;;;;;;13.05;8.40;;;8.80;99.90;;;;;;5028682;28;20209;-91
2022/11/05 03:16:01;;;;;;;12.82;8.48;;;8.80;99.90;;;;;;5044882;28;20266;-90
2022/11/05 03:18:38;;;;;;;12.70;7.75;;;8.80;99.90;;;;;;5031275;28;21472;-91
2022/11/05 03:21:56;;;;;;;13.02;7.28;;;8.90;99.90;;;;;;5032924;28;20669;-90
2022/11/05 03:24:29;;;;;;;12.15;7.00;;;8.90;99.90;;;;;;5009389;28;20184;-90
2022/11/05 03:26:59;;;;;;;11.52;7.43;;;8.70;99.90;;;;;;5032374;28;20200;-91
2022/11/05 03:29:31;;;;;;;10.90;7.40;;;8.70;99.90;;;;;;5034833;28;20173;-91
2022/11/05 03:32:00;;;;;;;14.32;7.93;;;8.70;99.90;;;;;;5033426;28;20197;-91
2022/11/05 03:34:30;;;;;;;13.20;9.15;;;8.70;99.90;;;;;;5031992;28;20216;-91
2022/11/05 03:36:57;;;;;;;13.63;8.25;;;;;;;;;;5050242;28;20254;-92
2022/11/05 03:39:32;;;;;;;13.35;8.73;;;8.80;99.90;;;;;;5030079;28;20662;-90
2022/11/05 03:41:59;;;;;;;13.70;8.73;;;8.80;99.90;;;;;;5035522;28;20355;-92
2022/11/05 03:44:33;;;;;;;20.50;11.70;;;8.80;99.90;;;;;;5050462;28;20186;-91
2022/11/05 03:47:05;;;;;;;19.58;12.30;;;8.80;99.90;;;;;;5047802;28;20263;-91
2022/11/05 03:49:46;;;;;;;19.75;11.82;;;8.80;99.90;;;;;;5030402;28;20186;-92
2022/11/05 03:52:18;;;;;;;19.02;10.48;;;8.80;99.90;;;;;;5032177;28;20210;-92
2022/11/05 03:54:45;;;;;;;23.42;11.50;;;8.80;99.90;;;;;;5026774;28;20199;-91
2022/11/05 03:57:17;;;;;;;22.65;11.70;;;8.80;99.90;;;;;;5049720;28;20189;-90
2022/11/05 03:59:45;;;;;;;19.63;12.88;;;8.80;99.90;;;;;;5030733;28;20256;-91
2022/11/05 04:02:12;;;;;;;22.42;12.63;;;8.70;99.90;;;;;;5031175;28;20273;-91
2022/11/05 04:04:39;;;;;;;22.35;11.55;;;;;;;;;;5032512;28;21159;-90
2022/11/05 04:15:18;;;;;;;21.40;13.13;;;8.90;99.90;;;;;;5030764;28;20192;-91
2022/11/05 04:17:44;;;;;;;17.63;10.47;;;;;;;;;;5029195;28;20186;-90
2022/11/05 04:25:49;;;;;;;23.42;13.30;;;8.70;99.90;;;;;;5031031;28;20197;-91
2022/11/05 04:28:15;;;;;;;18.40;11.98;;;;;;;;;;5030327;28;20689;-91
2022/11/05 04:30:43;;;;;;;24.30;14.27;;;;;;;;;;5029649;28;20206;-91
2022/11/05 04:33:14;;;;;;;28.65;15.27;;;8.60;99.90;;;;;;5044281;28;20494;-91
2022/11/05 04:35:45;;;;;;;27.92;15.70;;;8.70;99.90;;;;;;5031589;28;20193;-90
2022/11/05 04:38:14;;;;;;;20.58;12.75;;;8.80;99.90;;;;;;5044139;28;20568;-90
2022/11/05 04:40:40;;;;;;;24.42;13.02;;;;;;;;;;5028535;28;20292;-91
2022/11/05 04:43:07;;;;;;;26.73;13.77;;;;;;;;;;5044240;28;20184;-91
2022/11/05 04:45:34;;;;;;;27.40;15.15;;;8.80;99.90;;;;;;5045117;28;20205;-93
2022/11/05 04:48:03;;;;;;;23.50;14.35;;;8.80;99.90;;;;;;5043318;28;20182;-91
2022/11/05 04:50:29;;;;;;;22.08;12.75;;;;;;;;;;5027558;28;20213;-91
2022/11/05 04:52:55;;;;;;;23.47;14.30;;;;;;;;;;5042740;28;20208;-91
2022/11/05 04:55:21;;;;;;;27.98;13.68;;;;;;;;;;5039125;28;20439;-91
2022/11/05 04:57:51;;;;;;;28.60;15.40;;;8.70;99.90;;;;;;5042927;28;20192;-91
2022/11/05 05:00:18;;;;;;;23.92;13.75;;;8.60;99.90;;;;;;5027784;28;20205;-91
2022/11/05 05:02:45;;;;;;;21.92;11.73;;;;;;;;;;5028067;28;20773;-90
2022/11/05 05:05:12;;;;;;;27.13;14.15;;;8.80;99.90;;;;;;5023708;28;20181;-90
2022/11/05 05:07:38;;;;;;;23.73;14.95;;;;;;;;;;5025807;28;20193;-90
2022/11/05 05:10:05;;;;;;;27.37;14.50;;;8.60;99.90;;;;;;5024276;28;20190;-91
2022/11/05 05:12:31;;;;;;;33.88;15.95;;;;;;;;;;5037792;28;20847;-90
2022/11/05 05:14:57;;;;;;;27.00;14.13;;;;;;;;;;5040485;28;20192;-90
2022/11/05 05:17:24;;;;;;;24.77;14.00;;;;;;;;;;5043933;28;20178;-91
2022/11/05 05:22:36;;;;;;;29.98;16.73;;;8.60;99.90;;;;;;5028607;28;20722;-92
2022/11/05 05:25:02;;;;;;;29.33;15.50;;;;;;;;;;5040116;28;20178;-88
2022/11/05 05:27:28;;;;;;;30.42;15.65;;;;;;;;;;5037640;28;20185;-88
2022/11/05 05:29:55;;;;;;;30.80;14.77;;;8.60;99.90;;;;;;5016523;28;20185;-89
2022/11/05 05:32:21;;;;;;;29.42;15.55;;;;;;;;;;5041052;28;20561;-87
2022/11/05 05:34:47;;;;;;;27.70;14.65;;;;;;;;;;5020678;28;20189;-90
2022/11/05 05:37:13;;;;;;;25.27;13.07;;;;;;;;;;5029104;28;20200;-87
2022/11/05 05:39:39;;;;;;;31.57;16.03;;;;;;;;;;5030039;28;20185;-92
2022/11/05 05:42:05;;;;;;;21.93;12.67;;;;;;;;;;5011407;28;20706;-89
2022/11/05 05:44:31;;;;;;;26.60;13.40;;;;;;;;;;5030458;28;20458;-87
2022/11/05 05:46:57;;;;;;;26.40;15.33;;;;;;;;;;5031150;28;20439;-88
2022/11/05 05:49:23;;;;;;;23.73;14.03;;;;;;;;;;5006609;28;20559;-87
2022/11/05 05:51:49;;;;;;;26.27;13.80;;;;;;;;;;5021567;28;20561;-90
2022/11/05 05:54:15;;;;;;;22.63;14.53;;;;;;;;;;5033531;28;20472;-89
2022/11/05 05:56:44;;;;;;;27.60;14.73;;;8.50;99.90;;;;;;5019013;28;20452;-90
2022/11/05 05:59:10;;;;;;;23.25;12.75;;;;;;;;;;5015137;28;20570;-90
2022/11/05 06:01:36;;;;;;;25.10;14.60;;;8.60;99.90;;;;;;5019800;28;20224;-88
2022/11/05 06:04:02;;;;;;;32.50;15.55;;;;;;;;;;5019168;28;20447;-88
2022/11/05 06:06:28;;;;;;;22.13;14.30;;;;;;;;;;5028214;28;20197;-89
2022/11/05 06:08:55;;;;;;;26.50;15.60;;;8.60;99.90;;;;;;5020738;28;20449;-88
2022/11/05 06:11:24;;;;;;;27.40;15.50;;;8.60;99.90;;;;;;5017619;28;20456;-91
2022/11/05 06:13:50;;;;;;;24.67;15.00;;;;;;;;;;5028404;28;20226;-90
2022/11/05 06:16:18;;;;;;;30.43;16.90;;;;;;;;;;5036762;28;20225;-90
2022/11/05 06:18:44;;;;;;;30.58;16.98;;;;;;;;;;5031303;28;20440;-90
2022/11/05 06:21:15;;;;;;;28.67;15.38;;;8.70;99.90;;;;;;5034821;28;20201;-89
2022/11/05 06:23:43;;;;;;;29.15;15.15;;;8.70;99.90;;;;;;5019898;28;20198;-90
2022/11/05 06:26:11;;;;;;;33.35;14.20;;;8.70;99.90;;;;;;5014974;28;20188;-90
2022/11/05 06:28:36;;;;;;;31.33;15.80;;;;;;;;;;5020267;28;20181;-89
2022/11/05 06:31:02;;;;;;;38.67;18.57;;;;;;;;;;5041918;28;20209;-90
2022/11/05 06:33:28;;;;;;;37.03;18.50;;;;;;;;;;5041698;28;20472;-90
2022/11/05 06:35:58;;;;;;;41.13;18.37;;;8.60;99.90;;;;;;5042794;28;20194;-91
2022/11/05 06:38:24;;;;;;;37.15;18.55;;;;;;;;;;5025657;28;20436;-88
2022/11/05 06:40:50;;;;;;;46.55;19.13;;;;;;;;;;5026118;28;20217;-89
2022/11/05 06:43:16;;;;;;;37.80;19.23;;;;;;;;;;5030167;28;20979;-87
2022/11/05 06:45:41;;;;;;;42.97;20.00;;;;;;;;;;5016852;28;20439;-88
2022/11/05 06:48:07;;;;;;;28.93;15.90;;;;;;;;;;5037176;28;20440;-90
2022/11/05 06:50:33;;;;;;;34.60;16.80;;;;;;;;;;5037443;28;20448;-89
2022/11/05 06:53:01;;;;;;;35.80;18.37;;;8.60;99.90;;;;;;5028253;28;20567;-89
2022/11/05 06:55:28;;;;;;;33.30;17.35;;;8.60;99.90;;;;;;5040313;28;20445;-88
2022/11/05 06:57:54;;;;;;;31.73;15.93;;;;;;;;;;5019213;28;20217;-87
2022/11/05 07:00:20;;;;;;;35.25;17.42;;;8.50;99.90;;;;;;5019515;28;20202;-89
2022/11/05 07:02:47;;;;;;;33.05;18.20;;;;;;;;;;5028244;28;20273;-89
2022/11/05 07:05:13;;;;;;;27.38;16.50;;;8.60;99.90;;;;;;5029141;28;20213;-87
2022/11/05 07:07:41;;;;;;;31.38;18.13;;;8.60;99.90;;;;;;5027452;28;20196;-88
2022/11/05 07:10:09;;;;;;;42.50;18.30;;;8.60;99.90;;;;;;5020960;28;20190;-89
2022/11/05 07:12:35;;;;;;;29.63;14.98;;;;;;;;;;5035120;28;20348;-87
2022/11/05 07:15:01;;;;;;;33.10;18.23;;;;;;;;;;5024572;28;20709;-88
2022/11/05 07:17:27;;;;;;;34.80;14.70;;;;;;;;;;5033015;28;20996;-90
2022/11/05 07:19:53;;;;;;;29.38;15.95;;;;;;;;;;5044024;28;20429;-87
2022/11/05 07:22:19;;;;;;;30.87;16.60;;;;;;;;;;5011302;28;21079;-89
2022/11/05 07:24:46;;;;;;;34.37;17.70;;;;;;;;;;5021266;28;21144;-88
2022/11/05 07:27:12;;;;;;;31.75;16.13;;;;;;;;;;5031408;28;20572;-88
2022/11/05 07:29:38;;;;;;;39.30;18.55;;;;;;;;;;5021391;28;20213;-89
2022/11/05 07:32:04;;;;;;;39.07;17.27;;;;;;;;;;5042859;28;20662;-89
2022/11/05 07:34:31;;;;;;;28.20;15.18;;;8.80;99.90;;;;;;5042035;28;20517;-89
2022/11/05 07:36:57;;;;;;;33.75;16.63;;;;;;;;;;5033079;28;20272;-88
2022/11/05 07:39:22;;;;;;;29.63;16.13;;;8.80;99.90;;;;;;5034137;28;20190;-89
2022/11/05 07:41:48;;;;;;;31.77;15.00;;;;;;;;;;5027993;28;20464;-90
2022/11/05 07:44:16;;;;;;;27.50;13.50;;;;;;;;;;5027700;28;20216;-89
2022/11/05 07:46:42;;;;;;;25.25;13.32;;;;;;;;;;5041701;28;20468;-90
2022/11/05 07:49:08;;;;;;;26.03;14.27;;;;;;;;;;5033269;28;20883;-88
2022/11/05 07:51:34;;;;;;;28.10;14.80;;;;;;;;;;5022928;28;20468;-89
2022/11/05 07:54:00;;;;;;;27.37;15.50;;;;;;;;;;5040705;28;20467;-90
2022/11/05 07:56:26;;;;;;;25.73;13.17;;;;;;;;;;5042989;28;20432;-88
2022/11/05 07:58:52;;;;;;;27.40;14.20;;;;;;;;;;5024736;28;20831;-90
2022/11/05 08:01:18;;;;;;;34.30;11.30;;;;;;;;;;5038085;28;20456;-90
2022/11/05 08:03:43;;;;;;;23.77;9.40;;;;;;;;;;5017868;28;20459;-88
2022/11/05 08:06:09;;;;;;;21.10;9.57;;;;;;;;;;5014483;28;20987;-89
2022/11/05 08:08:35;;;;;;;22.65;10.88;;;;;;;;;;5017006;28;20447;-89
2022/11/05 08:11:03;;;;;;;16.00;9.70;;;8.30;99.90;;;;;;5032591;28;20229;-89
2022/11/05 08:13:29;;;;;;;19.83;10.88;;;;;;;;;;5023393;28;20492;-90
2022/11/05 08:15:58;;;;;;;25.63;11.30;;;8.40;99.90;;;;;;5022194;28;20217;-89
2022/11/05 08:18:31;;;;;;;19.38;10.45;;;;;;;;;;5022502;28;20563;-90
2022/11/05 08:20:58;;;;;;;22.02;11.65;;;8.20;99.90;;;;;;5032785;28;20602;-87
2022/11/05 08:23:25;;;;;;;18.17;10.65;;;8.10;99.90;;;;;;5024008;28;20193;-89
2022/11/05 08:25:50;;;;;;;20.75;9.65;;;8.10;99.90;;;;;;5021542;28;20194;-89
2022/11/05 08:28:16;;;;;;;19.07;9.07;;;;;;;;;;5020709;28;20182;-89
2022/11/05 08:30:42;;;;;;;20.98;8.93;;;;;;;;;;5021769;28;20548;-87
2022/11/05 08:33:10;;;;;;;16.25;8.27;;;8.10;99.90;;;;;;5034140;28;20272;-88
2022/11/05 08:35:37;;;;;;;13.95;7.28;;;8.00;99.90;;;;;;5018431;28;20288;-90
2022/11/05 08:38:06;;;;;;;12.32;6.13;;;7.90;99.90;;;;;;5027772;28;20293;-90
2022/11/05 08:40:34;;;;;;;11.57;6.70;;;8.00;99.90;;;;;;5016230;28;20255;-88
2022/11/05 08:43:02;;;;;;;10.77;6.45;;;8.10;99.90;;;;;;5022779;28;20201;-88
2022/11/05 08:45:28;;;;;;;10.60;4.90;;;;;;;;;;5018186;28;20270;-89
2022/11/05 08:48:09;;;;;;;9.93;6.10;;;8.30;99.90;;;;;;5015553;28;20193;-90
2022/11/05 08:50:36;;;;;;;10.10;6.15;;;8.40;99.90;;;;;;5032341;28;20210;-88
2022/11/05 08:53:02;;;;;;;16.40;7.47;;;;;;;;;;5026785;28;20237;-88
2022/11/05 08:55:27;;;;;;;12.70;7.23;;;;;;;;;;5013686;28;20646;-90
2022/11/05 08:58:00;;;;;;;13.17;7.87;;;8.30;99.90;;;;;;5013102;28;21755;-90
2022/11/05 09:00:28;;;;;;;14.02;7.95;;;8.20;99.90;;;;;;5010328;28;20579;-90
2022/11/05 09:02:54;;;;;;;14.55;7.72;;;;;;;;;;5011717;28;20181;-88
2022/11/05 09:05:20;;;;;;;16.65;8.88;;;;;;;;;;5007936;28;20200;-88
2022/11/05 09:07:46;;;;;;;16.95;8.48;;;;;;;;;;5017648;28;20185;-88
2022/11/05 09:10:12;;;;;;;19.90;9.85;;;;;;;;;;5013967;28;20189;-88
2022/11/05 09:12:38;;;;;;;18.85;9.27;;;;;;;;;;5012890;28;20204;-89
2022/11/05 09:15:04;;;;;;;16.93;8.70;;;;;;;;;;5012219;28;20201;-90
2022/11/05 09:17:30;;;;;;;16.50;8.57;;;;;;;;;;5031542;28;20458;-90
2022/11/05 09:19:56;;;;;;;20.17;9.40;;;;;;;;;;5033961;28;20749;-89
2022/11/05 09:22:22;;;;;;;22.53;9.47;;;;;;;;;;5028629;28;20436;-89
2022/11/05 09:24:48;;;;;;;22.90;8.47;;;;;;;;;;5026717;28;20440;-90
2022/11/05 09:27:14;;;;;;;22.73;9.30;;;;;;;;;;5027675;28;20504;-88
2022/11/05 09:29:40;;;;;;;21.73;9.82;;;8.50;99.90;;;;;;5027886;28;20490;-90
2022/11/05 09:32:07;;;;;;;21.48;10.88;;;8.50;99.90;;;;;;5028308;28;20297;-89
2022/11/05 09:34:33;;;;;;;18.45;9.75;;;;;;;;;;5027906;28;20300;-91
2022/11/05 09:36:59;;;;;;;18.00;9.85;;;;;;;;;;5025876;28;20185;-90
2022/11/05 09:39:26;;;;;;;19.77;10.65;;;;;;;;;;5023806;28;20231;-90
2022/11/05 09:41:55;;;;;;;23.75;10.70;;;8.80;99.90;;;;;;5040939;28;20198;-90
2022/11/05 09:44:25;;;;;;;22.58;10.40;;;8.70;99.90;;;;;;5050307;28;20192;-91
2022/11/05 09:46:58;;;;;;;21.00;10.80;;;8.80;99.90;;;;;;5025397;28;20197;-90
2022/11/05 09:49:24;;;;;;;23.27;10.50;;;;;;;;;;5029316;28;20181;-90
2022/11/05 09:51:52;;;;;;;19.03;10.47;;;8.60;99.90;;;;;;5021643;28;20228;-91
2022/11/05 09:54:21;;;;;;;20.00;9.60;;;8.70;99.90;;;;;;5017969;28;20747;-89
2022/11/05 09:56:47;;;;;;;20.58;9.10;;;;;;;;;;5033956;28;20189;-90
2022/11/05 09:59:18;;;;;;;14.75;8.20;;;8.60;99.90;;;;;;5020833;28;20310;-90
2022/11/05 10:01:44;;;;;;;15.25;8.05;;;8.60;99.90;;;;;;5019804;28;20198;-91
2022/11/05 10:04:23;;;;;;;20.92;8.98;;;8.50;99.90;;;;;;5021491;28;20436;-91
2022/11/05 10:06:58;;;;;;;20.95;10.35;;;8.50;99.90;;;;;;5020516;28;20979;-92
2022/11/05 10:09:34;;;;;;;18.98;10.27;;;8.60;99.90;;;;;;5036501;28;20185;-91
2022/11/05 10:12:27;;;;;;;17.10;9.90;;;8.60;99.90;;;;;;5024952;28;20216;-90
2022/11/05 10:15:37;;;;;;;20.95;9.80;;;8.60;99.90;;;;;;5022068;28;20244;-90
2022/11/05 10:18:20;;;;;;;22.55;11.27;;;8.70;99.90;;;;;;5044047;28;20185;-90
2022/11/05 10:20:46;;;;;;;20.75;10.18;;;;;;;;;;5025812;28;20235;-90
2022/11/05 10:23:15;;;;;;;30.10;11.03;;;8.70;99.90;;;;;;5037649;28;20185;-90
2022/11/05 10:25:44;;;;;;;21.67;11.00;;;8.80;99.90;;;;;;5018895;28;20436;-90
2022/11/05 10:28:18;;;;;;;18.98;10.90;;;8.80;99.90;;;;;;5019855;28;20792;-92
2022/11/05 10:30:47;;;;;;;22.30;12.10;;;8.80;99.90;;;;;;5036255;28;20344;-90
2022/11/05 10:33:22;;;;;;;24.95;11.63;;;8.90;99.90;;;;;;5015257;28;20202;-90
2022/11/05 10:35:53;;;;;;;15.13;10.25;;;8.90;99.90;;;;;;5021980;28;20191;-89
2022/11/05 10:38:19;;;;;;;27.63;12.73;;;;;;;;;;5021494;28;20197;-90
2022/11/05 10:40:59;;;;;;;23.52;12.77;;;9.00;99.90;;;;;;5021829;28;20198;-89
2022/11/05 10:43:34;;;;;;;34.63;12.45;;;9.10;99.90;;;;;;5022080;28;20202;-89
2022/11/05 10:46:25;;;;;;;19.77;11.40;;;9.10;99.90;;;;;;5037552;28;20177;-91
2022/11/05 10:48:51;;;;;;;21.08;13.30;;;;;;;;;;5030762;28;20285;-89
2022/11/05 10:51:18;;;;;;;24.90;10.93;;;9.30;99.90;;;;;;5028379;28;20277;-91
2022/11/05 10:53:56;;;;;;;27.23;11.52;;;9.60;99.90;;;;;;5016876;28;20465;-90
2022/11/05 10:56:34;;;;;;;25.25;10.95;;;9.50;99.90;;;;;;5009329;28;20193;-90
2022/11/05 10:59:02;;;;;;;26.38;11.52;;;;;;;;;;5041534;28;20178;-89
2022/11/05 11:01:28;;;;;;;21.75;9.30;;;;;;;;;;5019935;28;20209;-91
2022/11/05 11:04:04;;;;;;;28.52;12.25;;;9.20;99.90;;;;;;5015560;28;20320;-90
2022/11/05 11:06:33;;;;;;;23.80;12.27;;;9.40;99.90;;;;;;5015687;28;20200;-90
2022/11/05 11:09:02;;;;;;;27.67;12.00;;;9.50;99.90;;;;;;5011686;28;20777;-90
2022/11/05 11:11:31;;;;;;;28.48;13.13;;;9.50;99.90;;;;;;5011423;28;20255;-89
2022/11/05 11:13:57;;;;;;;20.95;11.02;;;;;;;;;;5032790;28;20206;-90
2022/11/05 11:16:26;;;;;;;19.07;10.40;;;9.50;99.90;;;;;;5033687;28;22434;-90
2022/11/05 11:18:59;;;;;;;24.38;10.80;;;9.60;99.90;;;;;;5038476;28;20438;-89
2022/11/05 11:21:27;;;;;;;15.68;9.82;;;9.80;99.90;;;;;;5019816;28;20205;-90
2022/11/05 11:23:59;;;;;;;23.77;12.65;;;10.10;99.90;;;;;;5012676;28;20272;-91
2022/11/05 11:26:34;;;;;;;25.30;10.02;;;10.40;99.90;;;;;;5013976;28;20235;-90
2022/11/05 11:29:27;;;;;;;22.65;11.88;;;10.70;99.90;;;;;;5021528;28;20759;-89
2022/11/05 11:31:55;;;;;;;26.75;12.43;;;10.90;99.90;;;;;;5016016;28;20650;-90
2022/11/05 11:34:40;;;;;;;18.48;10.07;;;11.10;99.90;;;;;;5032987;28;20832;-90
2022/11/05 11:37:28;;;;;;;16.38;9.98;;;11.00;99.90;;;;;;5019373;28;20173;-91
2022/11/05 11:39:58;;;;;;;20.17;11.63;;;10.90;99.90;;;;;;5020379;28;20225;-91
2022/11/05 11:42:30;;;;;;;17.80;9.95;;;11.00;99.90;;;;;;5025952;28;20186;-91
2022/11/05 11:44:59;;;;;;;18.88;10.88;;;11.10;99.90;;;;;;5019998;28;20186;-89
2022/11/05 11:47:27;;;;;;;17.33;8.95;;;10.90;99.90;;;;;;5026321;28;20186;-90
2022/11/05 11:49:55;;;;;;;15.95;9.15;;;10.20;99.90;;;;;;5029130;28;21582;-90
2022/11/05 11:52:35;;;;;;;15.65;8.57;;;10.80;99.90;;;;;;5034432;28;20726;-89
2022/11/05 11:55:10;;;;;;;20.05;9.63;;;10.50;99.90;;;;;;5031460;28;20216;-90
2022/11/05 11:57:43;;;;;;;16.55;9.15;;;10.60;99.90;;;;;;5048305;28;20188;-90
2022/11/05 12:00:10;;;;;;;18.80;11.02;;;;;;;;;;5018676;28;20251;-88
2022/11/05 12:02:36;;;;;;;15.07;7.57;;;;;;;;;;5015116;28;20182;-90
2022/11/05 12:05:29;;;;;;;16.15;8.82;;;10.70;99.90;;;;;;5035239;28;20868;-89
2022/11/05 12:08:04;;;;;;;13.60;7.00;;;10.70;99.90;;;;;;5016396;28;20213;-92
2022/11/05 12:10:58;;;;;;;10.98;6.28;;;10.60;99.90;;;;;;5014259;28;20205;-89
2022/11/05 12:14:01;;;;;;;14.50;8.05;;;10.70;99.90;;;;;;5028495;28;20205;-90
2022/11/05 12:16:48;;;;;;;11.32;6.78;;;10.80;99.90;;;;;;5017261;28;20379;-90
2022/11/05 12:19:27;;;;;;;13.00;7.07;;;10.90;99.90;;;;;;5039873;28;20182;-90
2022/11/05 12:22:00;;;;;;;22.13;8.85;;;;;;;;;;5044033;28;20213;-92
2022/11/05 12:24:36;;;;;;;15.70;7.60;;;10.90;99.90;;;;;;5037251;28;20182;-90
2022/11/05 12:27:28;;;;;;;18.65;9.55;;;11.20;99.90;;;;;;5022074;28;20536;-91
2022/11/05 12:30:17;;;;;;;13.40;8.40;;;11.50;99.90;;;;;;5011514;28;20209;-88
2022/11/05 12:33:01;;;;;;;13.70;8.05;;;11.60;99.90;;;;;;5031766;28;20209;-87
2022/11/05 12:35:27;;;;;;;13.80;8.95;;;;;;;;;;5049287;28;20216;-92
2022/11/05 12:38:12;;;;;;;21.52;8.90;;;11.20;99.90;;;;;;5027439;28;20189;-89
2022/11/05 12:40:57;;;;;;;10.27;6.85;;;11.10;99.90;;;;;;5032589;28;20206;-89
2022/11/05 12:43:23;;;;;;;9.75;6.40;;;;;;;;;;5017867;28;21234;-90
2022/11/05 12:46:11;;;;;;;9.57;5.80;;;10.70;99.90;;;;;;5028126;28;20189;-89
2022/11/05 12:49:01;;;;;;;10.60;5.95;;;11.90;99.90;;;;;;5023053;28;20436;-89
2022/11/05 12:51:27;;;;;;;12.40;7.80;;;;;;;;;;5022406;28;20320;-91
2022/11/05 12:54:30;;;;;;;11.93;4.70;;;11.90;99.90;;;;;;5028667;28;20306;-89
2022/11/05 12:57:00;;;;;;;8.35;5.22;;;11.60;99.90;;;;;;5053695;28;20587;-91
2022/11/05 12:59:36;;;;;;;10.07;5.22;;;11.50;99.90;;;;;;5040539;28;20190;-90
2022/11/05 13:02:39;;;;;;;9.63;4.97;;;11.40;99.90;;;;;;5043681;28;20253;-90
2022/11/05 13:05:15;;;;;;;7.32;4.05;;;11.00;99.90;;;;;;5024287;28;20188;-90
2022/11/05 13:07:51;;;;;;;9.40;4.45;;;11.00;99.90;;;;;;5035635;28;20258;-89
2022/11/05 13:10:17;;;;;;;8.23;5.00;;;;;;;;;;5029225;28;20231;-89
2022/11/05 13:12:45;;;;;;;10.00;6.13;;;10.70;99.90;;;;;;5040303;28;20193;-90
2022/11/05 13:15:32;;;;;;;17.08;5.50;;;10.80;99.90;;;;;;5046654;28;20440;-90
2022/11/05 13:18:04;;;;;;;10.15;5.25;;;10.70;99.90;;;;;;5058899;28;20186;-90
2022/11/05 13:20:34;;;;;;;10.40;4.63;;;10.60;99.90;;;;;;5032715;28;20702;-89
2022/11/05 13:23:00;;;;;;;16.20;5.35;;;;;;;;;;5016612;28;20192;-89
2022/11/05 13:25:40;;;;;;;9.63;4.00;;;10.60;99.90;;;;;;5017452;28;20657;-90
2022/11/05 13:28:06;;;;;;;6.13;4.53;;;;;;;;;;5010318;28;20436;-90
2022/11/05 13:30:46;;;;;;;7.17;4.47;;;10.80;99.90;;;;;;5015914;28;20271;-91
2022/11/05 13:33:41;;;;;;;9.88;4.43;;;10.80;99.90;;;;;;5027143;28;20487;-91
2022/11/05 13:39:15;;;;;;;7.20;3.80;;;10.90;99.90;;;;;;5013629;28;20271;-87
2022/11/05 13:42:12;;;;;;;5.95;3.55;;;10.80;99.90;;;;;;5015774;28;20205;-89
2022/11/05 13:44:38;;;;;;;5.53;3.10;;;;;;;;;;5034070;28;20685;-88
2022/11/05 13:47:29;;;;;;;11.40;4.50;;;11.10;99.90;;;;;;5013592;28;20186;-90
2022/11/05 13:50:05;;;;;;;7.10;3.97;;;10.80;99.90;;;;;;5013203;28;20939;-89
2022/11/05 13:52:40;;;;;;;6.47;3.75;;;10.80;99.90;;;;;;5005887;28;20197;-89
2022/11/05 13:55:08;;;;;;;6.55;3.85;;;10.60;99.90;;;;;;5016891;28;20292;-90
2022/11/05 13:57:34;;;;;;;7.05;4.25;;;;;;;;;;5016165;28;20658;-90
2022/11/05 14:00:16;;;;;;;8.70;4.10;;;10.10;99.90;;;;;;5019036;28;20218;-91
2022/11/05 14:02:56;;;;;;;6.10;3.92;;;10.00;99.90;;;;;;5034991;28;20964;-90
2022/11/05 14:05:31;;;;;;;12.05;4.35;;;10.00;99.90;;;;;;5008336;28;20186;-86
2022/11/05 14:07:59;;;;;;;5.18;3.88;;;10.00;99.90;;;;;;5059049;28;20169;-88
2022/11/05 14:10:32;;;;;;;8.18;4.65;;;10.00;99.90;;;;;;5016724;28;20631;-87
2022/11/05 14:13:19;;;;;;;7.45;4.45;;;9.90;99.90;;;;;;5015664;28;20217;-89
2022/11/05 14:16:07;;;;;;;7.78;4.13;;;9.90;99.90;;;;;;5014263;28;20194;-88
2022/11/05 14:18:45;;;;;;;12.32;3.80;;;9.90;99.90;;;;;;5013877;28;20209;-88
2022/11/05 14:21:47;;;;;;;9.48;6.50;;;9.80;99.90;;;;;;5014325;28;21090;-90
2022/11/05 14:24:26;;;;;;;8.32;4.95;;;9.70;99.90;;;;;;5027310;28;20189;-86
2022/11/05 14:27:01;;;;;;;6.60;4.35;;;9.60;99.90;;;;;;5010265;28;20190;-89
2022/11/05 14:29:47;;;;;;;9.75;4.35;;;9.40;99.90;;;;;;5015369;28;20181;-89